Time;durP1;ratioP1;P1;durP2;ratioP2;P2;SDS_P1;SDS_P2;PMS_P1;PMS_P2;Temp;Humidity;BMP_temperature;BMP_pressure;BME280_temperature;BME280_humidity;BME280_pressure;Samples;Min_cycle;Max_cycle;Signal;HPM_P1;HPM_P2
2022/04/24 00:01:58;;;;;;;8.40;5.97;;;;;;;11.89;61.98;98681.19;5022773;28;20518;-68
2022/04/24 00:04:24;;;;;;;7.50;6.10;;;;;;;11.90;62.01;98682.00;5021811;28;20041;-69
2022/04/24 00:06:53;;;;;;;7.05;5.63;;;;;;;11.92;61.77;98682.63;5027163;28;20042;-69
2022/04/24 00:09:20;;;;;;;8.00;6.40;;;;;;;11.91;61.70;98678.31;5028041;28;20036;-69
2022/04/24 00:11:45;;;;;;;7.20;5.68;;;;;;;11.93;61.78;98684.25;5025928;28;20037;-69
2022/04/24 00:14:11;;;;;;;7.03;5.80;;;;;;;11.98;61.56;98679.13;5026494;28;20125;-69
2022/04/24 00:16:39;;;;;;;6.72;5.60;;;;;;;12.03;61.28;98679.31;5028862;28;20029;-69
2022/04/24 00:19:05;;;;;;;7.47;6.15;;;;;;;12.04;61.50;98670.38;5032909;28;20056;-69
2022/04/24 00:21:32;;;;;;;7.05;5.75;;;;;;;12.02;61.32;98674.25;5039066;28;20061;-69
2022/04/24 00:23:59;;;;;;;7.03;5.75;;;;;;;12.03;61.00;98674.03;5038308;28;20048;-69
2022/04/24 00:26:25;;;;;;;7.43;5.72;;;;;;;12.03;61.37;98676.69;5046233;28;20407;-69
2022/04/24 00:28:52;;;;;;;5.75;4.90;;;;;;;12.05;61.23;98669.34;5031668;28;20036;-69
2022/04/24 00:31:18;;;;;;;6.70;5.40;;;;;;;12.07;61.17;98666.50;5028161;28;20041;-69
2022/04/24 00:33:44;;;;;;;6.07;5.15;;;;;;;12.06;61.14;98668.34;5028282;28;20135;-68
2022/04/24 00:36:10;;;;;;;7.72;6.00;;;;;;;12.05;61.28;98660.59;5038609;28;20041;-69
2022/04/24 00:38:36;;;;;;;7.30;5.80;;;;;;;12.09;60.85;98667.91;5028628;28;20048;-69
2022/04/24 00:41:04;;;;;;;6.53;5.57;;;;;;;12.10;61.05;98663.41;5029966;28;20156;-68
2022/04/24 00:43:30;;;;;;;6.28;4.55;;;;;;;12.10;61.04;98655.47;5032004;28;20030;-69
2022/04/24 00:46:13;;;;;;;6.55;5.45;;;;;;;12.08;60.88;98666.28;5055303;28;20033;-69
2022/04/24 00:48:41;;;;;;;6.85;5.60;;;;;;;12.07;61.23;98661.19;5030842;28;20032;-69
2022/04/24 00:51:11;;;;;;;6.38;5.22;;;;;;;12.07;61.49;98651.41;5025234;28;20041;-69
2022/04/24 00:53:38;;;;;;;7.90;6.00;;;;;;;12.07;61.17;98654.06;5030904;28;20029;-69
2022/04/24 00:56:06;;;;;;;7.63;6.32;;;;;;;12.13;60.98;98652.41;5029783;28;20030;-69
2022/04/24 00:58:33;;;;;;;8.23;6.28;;;;;;;12.14;61.03;98643.44;5030408;28;20034;-69
2022/04/24 01:01:00;;;;;;;8.18;6.15;;;;;;;12.17;61.00;98636.91;5025135;28;20519;-69
2022/04/24 01:03:27;;;;;;;7.05;6.00;;;;;;;12.20;60.79;98639.13;5032318;28;20064;-69
2022/04/24 01:05:55;;;;;;;7.25;5.93;;;;;;;12.19;60.96;98640.19;5050260;28;20152;-69
2022/04/24 01:08:20;;;;;;;6.82;5.93;;;;;;;12.23;60.60;98633.44;5051253;28;20033;-69
2022/04/24 01:10:46;;;;;;;6.50;5.20;;;;;;;12.25;60.46;98634.88;5045111;28;20382;-69
2022/04/24 01:13:12;;;;;;;7.20;6.07;;;;;;;12.19;60.99;98629.56;5046661;28;20409;-69
2022/04/24 01:15:39;;;;;;;7.85;6.32;;;;;;;12.20;61.06;98626.69;5045339;28;20028;-69
2022/04/24 01:18:07;;;;;;;8.20;6.43;;;;;;;12.27;60.59;98627.50;5043666;28;20041;-69
2022/04/24 01:20:34;;;;;;;6.63;5.70;;;;;;;12.28;60.24;98618.53;5046612;28;20048;-69
2022/04/24 01:23:05;;;;;;;6.95;5.90;;;;;;;12.30;60.52;98615.69;5043031;28;20037;-69
2022/04/24 01:25:32;;;;;;;6.80;5.40;;;;;;;12.30;60.37;98616.50;5028503;28;20036;-69
2022/04/24 01:27:58;;;;;;;7.03;5.85;;;;;;;12.29;60.34;98620.16;5030394;28;20489;-69
2022/04/24 01:30:24;;;;;;;6.93;5.85;;;;;;;12.27;60.64;98621.38;5026536;28;20383;-69
2022/04/24 01:32:49;;;;;;;10.55;7.20;;;;;;;12.17;60.91;98607.78;5027936;28;20107;-69
2022/04/24 01:35:15;;;;;;;7.28;5.50;;;;;;;12.21;60.58;98627.53;5028965;28;20172;-69
2022/04/24 01:37:44;;;;;;;5.78;5.00;;;;;;;12.18;60.58;98612.88;5030018;28;20040;-69
2022/04/24 01:40:10;;;;;;;5.93;5.03;;;;;;;12.17;60.74;98627.13;5042484;28;20406;-69
2022/04/24 01:42:35;;;;;;;6.03;5.10;;;;;;;12.16;60.45;98632.66;5031101;28;20037;-69
2022/04/24 01:45:00;;;;;;;7.32;5.45;;;;;;;12.13;60.65;98641.81;5038771;28;20048;-69
2022/04/24 01:47:26;;;;;;;6.47;5.63;;;;;;;12.09;61.12;98644.06;5047288;28;20051;-69
2022/04/24 01:49:51;;;;;;;7.38;5.72;;;;;;;12.05;61.43;98642.84;5047683;28;20037;-69
2022/04/24 01:52:17;;;;;;;5.97;5.00;;;;;;;12.01;61.24;98639.00;5047639;28;20037;-69
2022/04/24 01:54:45;;;;;;;8.57;6.38;;;;;;;11.93;62.00;98638.41;5031402;28;20036;-69
2022/04/24 01:57:11;;;;;;;6.60;5.47;;;;;;;11.87;61.35;98643.50;5046587;28;20037;-69
2022/04/24 01:59:37;;;;;;;7.35;5.95;;;;;;;11.81;61.63;98631.06;5047698;28;20116;-69
2022/04/24 02:02:04;;;;;;;7.72;6.00;;;;;;;11.73;62.28;98633.09;5047465;28;20117;-69
2022/04/24 02:04:30;;;;;;;8.27;6.80;;;;;;;11.66;62.64;98626.00;5045084;28;20071;-69
2022/04/24 02:06:56;;;;;;;7.85;6.32;;;;;;;11.62;62.90;98623.94;5041927;28;20127;-69
2022/04/24 02:09:22;;;;;;;8.25;6.60;;;;;;;11.56;63.09;98624.75;5049570;28;20489;-69
2022/04/24 02:11:48;;;;;;;8.15;6.85;;;;;;;11.52;63.11;98629.66;5047665;28;20029;-69
2022/04/24 02:14:15;;;;;;;7.00;5.40;;;;;;;11.51;62.96;98622.72;5048485;28;20084;-69
2022/04/24 02:16:41;;;;;;;7.03;5.82;;;;;;;11.49;63.01;98630.09;5046784;28;20493;-69
2022/04/24 02:19:07;;;;;;;7.95;5.82;;;;;;;11.46;63.00;98622.53;5047915;28;20060;-69
2022/04/24 02:21:32;;;;;;;7.18;5.70;;;;;;;11.45;63.40;98621.72;5041305;28;20033;-69
2022/04/24 02:23:59;;;;;;;9.75;7.10;;;;;;;11.38;63.80;98620.09;5042627;28;20095;-69
2022/04/24 02:26:25;;;;;;;8.98;6.60;;;;;;;11.35;63.84;98612.56;5061826;28;20104;-69
2022/04/24 02:28:52;;;;;;;7.90;6.80;;;;;;;11.30;63.86;98610.53;5046532;28;20091;-69
2022/04/24 02:31:17;;;;;;;9.45;7.30;;;;;;;11.24;64.10;98617.44;5047699;28;20036;-68
2022/04/24 02:33:43;;;;;;;8.45;6.97;;;;;;;11.16;65.23;98606.25;5047164;28;20095;-69
2022/04/24 02:36:10;;;;;;;8.45;7.15;;;;;;;11.14;64.50;98613.59;5046705;28;20359;-69
2022/04/24 02:38:36;;;;;;;11.23;7.80;;;;;;;11.08;65.31;98598.50;5042323;28;20053;-69
2022/04/24 02:41:01;;;;;;;7.03;6.15;;;;;;;11.07;64.68;98608.28;5029482;28;20033;-69
2022/04/24 02:43:28;;;;;;;8.05;7.00;;;;;;;11.04;65.28;98603.41;5031440;28;20045;-69
2022/04/24 02:45:54;;;;;;;9.68;7.07;;;;;;;11.01;65.36;98604.63;5026472;28;20391;-69
2022/04/24 02:48:22;;;;;;;7.38;6.07;;;;;;;11.02;64.93;98606.22;5041217;28;20033;-69
2022/04/24 02:50:47;;;;;;;8.80;6.82;;;;;;;11.02;65.20;98605.44;5025629;28;20107;-69
2022/04/24 02:53:15;;;;;;;8.65;6.78;;;;;;;11.03;64.99;98604.41;5033226;28;20045;-69
2022/04/24 02:55:43;;;;;;;8.90;7.22;;;;;;;11.02;66.00;98605.44;5026082;28;20037;-69
2022/04/24 02:58:09;;;;;;;8.30;7.20;;;;;;;10.98;65.77;98612.13;5032469;28;20060;-69
2022/04/24 03:00:51;;;;;;;7.07;6.38;;;;;;;10.93;65.48;98619.84;5030300;28;20034;-69
2022/04/24 03:03:22;;;;;;;8.32;6.45;;;;;;;10.97;65.14;98637.75;5028514;28;20034;-69
2022/04/24 03:05:49;;;;;;;6.45;5.00;;;;;;;11.02;64.79;98639.81;5031495;28;20062;-69
2022/04/24 03:08:16;;;;;;;6.93;5.70;;;;;;;11.08;65.08;98657.50;5035347;28;20049;-69
2022/04/24 03:10:44;;;;;;;7.47;6.13;;;;;;;11.10;64.67;98657.31;5035357;28;20053;-69
2022/04/24 03:13:11;;;;;;;6.30;5.28;;;;;;;11.14;64.78;98666.47;5032970;28;20041;-69
2022/04/24 03:15:40;;;;;;;9.25;7.43;;;;;;;11.07;66.31;98676.25;5033021;28;20252;-69
2022/04/24 03:18:06;;;;;;;9.07;7.30;;;;;;;11.04;66.15;98678.25;5063789;28;20041;-69
2022/04/24 03:20:32;;;;;;;7.30;6.13;;;;;;;11.08;65.97;98683.94;5063984;28;20408;-68
2022/04/24 03:23:00;;;;;;;7.75;5.45;;;;;;;11.14;65.33;98693.75;5048398;28;20029;-69
2022/04/24 03:25:29;;;;;;;6.80;5.28;;;;;;;11.17;65.04;98697.81;5032407;28;20037;-69
2022/04/24 03:27:55;;;;;;;6.63;5.20;;;;;;;11.17;65.31;98695.16;5033586;28;20128;-69
2022/04/24 03:30:22;;;;;;;6.38;5.20;;;;;;;11.14;65.14;98701.69;5043735;28;20040;-69
2022/04/24 03:32:49;;;;;;;5.50;4.40;;;;;;;11.14;65.35;98698.22;5043039;28;20691;-69
2022/04/24 03:35:14;;;;;;;8.15;6.57;;;;;;;11.06;66.06;98701.88;5031346;28;20057;-69
2022/04/24 03:37:41;;;;;;;8.68;6.60;;;;;;;11.05;65.76;98697.59;5031292;28;20439;-69
2022/04/24 03:40:08;;;;;;;8.32;6.72;;;;;;;11.00;65.88;98702.66;5031021;28;20045;-69
2022/04/24 03:42:35;;;;;;;7.75;6.55;;;;;;;10.82;66.72;98700.56;5026682;28;20454;-69
2022/04/24 03:45:01;;;;;;;7.50;5.97;;;;;;;10.71;66.99;98706.44;5022296;28;20036;-69
2022/04/24 03:47:26;;;;;;;8.45;6.63;;;;;;;10.68;67.90;98702.34;5031493;28;20052;-69
2022/04/24 03:49:52;;;;;;;8.07;6.57;;;;;;;10.72;67.58;98714.16;5033026;28;20037;-69
2022/04/24 03:52:17;;;;;;;8.82;5.78;;;;;;;10.69;67.40;98711.91;5030559;28;20077;-69
2022/04/24 03:54:44;;;;;;;8.30;6.35;;;;;;;10.55;67.90;98708.38;5024408;28;20038;-69
2022/04/24 03:57:11;;;;;;;8.20;5.90;;;;;;;10.59;67.86;98708.81;5026928;28;20044;-68
2022/04/24 03:59:37;;;;;;;7.57;5.80;;;;;;;10.70;67.85;98710.91;5029136;28;20612;-69
2022/04/24 04:02:04;;;;;;;10.13;6.82;;;;;;;10.70;67.64;98710.91;5048613;28;20036;-69
2022/04/24 04:04:29;;;;;;;7.93;6.20;;;;;;;10.64;68.05;98706.41;5022692;28;20041;-69
2022/04/24 04:06:56;;;;;;;7.55;5.93;;;;;;;10.70;67.88;98707.44;5044871;28;20082;-69
2022/04/24 04:09:23;;;;;;;7.45;6.10;;;;;;;10.76;67.48;98706.66;5031623;28;20030;-69
2022/04/24 04:11:49;;;;;;;7.45;5.63;;;;;;;10.79;67.59;98701.78;5031380;28;20037;-69
2022/04/24 04:14:14;;;;;;;8.23;6.47;;;;;;;10.78;68.04;98702.00;5034478;28;20045;-69
2022/04/24 04:16:40;;;;;;;7.63;6.00;;;;;;;10.75;67.61;98697.91;5037328;28;20033;-69
2022/04/24 04:19:05;;;;;;;8.05;6.10;;;;;;;10.67;68.29;98699.91;5038791;28;20037;-69
2022/04/24 04:21:31;;;;;;;7.55;6.40;;;;;;;10.69;68.62;98708.47;5033549;28;20033;-69
2022/04/24 04:23:56;;;;;;;8.98;7.18;;;;;;;10.73;68.02;98707.88;5032161;28;20045;-69
2022/04/24 04:26:21;;;;;;;8.45;6.43;;;;;;;10.77;68.01;98705.63;5030402;28;20037;-70
2022/04/24 04:28:47;;;;;;;8.35;6.43;;;;;;;10.81;68.02;98691.00;5032086;28;20061;-69
2022/04/24 04:31:13;;;;;;;8.38;6.68;;;;;;;10.80;67.01;98700.78;5031937;28;20048;-69
2022/04/24 04:33:39;;;;;;;8.35;6.15;;;;;;;10.90;64.97;98692.47;5037356;28;20124;-69
2022/04/24 04:36:05;;;;;;;8.07;6.30;;;;;;;11.08;64.09;98683.16;5033820;28;20108;-69
2022/04/24 04:38:30;;;;;;;7.07;5.55;;;;;;;11.19;63.26;98691.31;5046928;28;20045;-69
2022/04/24 04:40:55;;;;;;;6.90;4.90;;;;;;;11.30;63.04;98700.50;5031287;28;20044;-69
2022/04/24 04:43:20;;;;;;;7.05;5.20;;;;;;;11.35;63.80;98702.53;5033821;28;20235;-69
2022/04/24 04:45:47;;;;;;;7.18;5.90;;;;;;;11.35;62.95;98699.91;5031275;28;20168;-69
2022/04/24 04:48:12;;;;;;;8.13;6.00;;;;;;;11.37;61.70;98697.84;5032495;28;20034;-68
2022/04/24 04:50:38;;;;;;;;;;;;;;;11.43;61.05;98697.03;5052624;28;20124;-69
2022/04/24 04:53:03;;;;;;;8.02;5.55;;;;;;;11.55;59.96;98702.56;5039505;28;19960;-69
2022/04/24 04:55:28;;;;;;;7.32;5.28;;;;;;;11.54;60.13;98696.44;5032788;28;20037;-69
2022/04/24 04:57:54;;;;;;;6.40;5.18;;;;;;;11.55;60.18;98707.84;5034369;28;20071;-68
2022/04/24 05:00:20;;;;;;;6.38;5.43;;;;;;;11.50;60.21;98702.34;5033905;28;20056;-68
2022/04/24 05:02:45;;;;;;;7.55;5.35;;;;;;;11.53;60.03;98705.41;5038458;28;20076;-69
2022/04/24 05:05:10;;;;;;;7.20;5.63;;;;;;;11.43;60.49;98703.16;5033780;28;20034;-68
2022/04/24 05:07:36;;;;;;;6.80;5.32;;;;;;;11.21;61.16;98699.06;5032444;28;20057;-68
2022/04/24 05:10:04;;;;;;;8.27;5.60;;;;;;;11.13;61.69;98708.00;5032538;28;20493;-69
2022/04/24 05:12:30;;;;;;;6.60;5.20;;;;;;;10.98;62.56;98709.97;5034255;28;20053;-68
2022/04/24 05:15:07;;;;;;;7.60;5.93;;;;;;;10.77;64.24;98716.22;5032201;28;20099;-68
2022/04/24 05:17:34;;;;;;;7.63;5.70;;;;;;;10.78;64.76;98723.13;5031875;28;20037;-69
2022/04/24 05:20:00;;;;;;;6.30;5.13;;;;;;;10.80;64.81;98723.75;5032697;28;20044;-69
2022/04/24 05:22:26;;;;;;;7.95;5.82;;;;;;;10.90;65.80;98733.97;5037032;28;20041;-68
2022/04/24 05:24:51;;;;;;;6.50;4.90;;;;;;;10.92;65.61;98737.22;5036269;28;20083;-68
2022/04/24 05:27:16;;;;;;;6.45;5.30;;;;;;;10.81;67.31;98728.84;5034281;28;20484;-68
2022/04/24 05:29:42;;;;;;;5.65;4.65;;;;;;;10.81;66.62;98742.06;5034592;28;20033;-68
2022/04/24 05:32:08;;;;;;;6.82;4.90;;;;;;;10.76;67.00;98741.84;5032965;28;20037;-69
2022/04/24 05:34:33;;;;;;;6.22;4.75;;;;;;;10.68;67.68;98739.38;5032108;28;20037;-68
2022/04/24 05:36:59;;;;;;;6.45;4.85;;;;;;;10.60;68.17;98744.81;5031183;28;20077;-68
2022/04/24 05:39:24;;;;;;;6.57;4.75;;;;;;;10.50;69.02;98745.16;5032940;28;20036;-68
2022/04/24 05:41:50;;;;;;;6.13;4.40;;;;;;;10.45;69.06;98744.94;5044548;28;20556;-69
2022/04/24 05:44:15;;;;;;;5.82;4.45;;;;;;;10.43;68.95;98754.88;5032849;28;20044;-69
2022/04/24 05:46:40;;;;;;;5.25;4.25;;;;;;;10.40;69.14;98753.44;5030110;28;20139;-68
2022/04/24 05:49:06;;;;;;;5.72;4.75;;;;;;;10.35;70.14;98753.22;5027576;28;20026;-68
2022/04/24 05:51:33;;;;;;;4.93;3.90;;;;;;;10.41;69.45;98751.59;5029412;28;20037;-68
2022/04/24 05:53:59;;;;;;;4.80;3.60;;;;;;;10.45;69.89;98759.97;5029645;28;20039;-67
2022/04/24 05:56:24;;;;;;;5.80;4.65;;;;;;;10.41;70.91;98754.25;5052405;28;20120;-68
2022/04/24 05:58:49;;;;;;;9.45;4.95;;;;;;;10.36;71.32;98764.59;5054094;28;20520;-69
2022/04/24 06:01:15;;;;;;;6.10;4.55;;;;;;;10.40;71.23;98761.38;5045166;28;20041;-68
2022/04/24 06:03:40;;;;;;;5.53;4.10;;;;;;;10.41;71.18;98764.81;5030466;28;20252;-69
2022/04/24 06:06:06;;;;;;;5.28;3.85;;;;;;;10.41;71.49;98760.34;5032652;28;20029;-69
2022/04/24 06:08:32;;;;;;;4.63;3.80;;;;;;;10.44;71.30;98763.63;5025767;28;20599;-69
2022/04/24 06:10:57;;;;;;;5.18;3.55;;;;;;;10.45;71.05;98758.16;5027324;28;20092;-69
2022/04/24 06:13:23;;;;;;;4.10;3.15;;;;;;;10.47;70.79;98763.25;5043004;28;20057;-69
2022/04/24 06:15:48;;;;;;;4.28;3.30;;;;;;;10.46;70.44;98761.59;5047657;28;20037;-69
2022/04/24 06:18:14;;;;;;;4.25;3.35;;;;;;;10.46;71.01;98767.69;5049530;28;20220;-69
2022/04/24 06:20:39;;;;;;;4.43;3.58;;;;;;;10.50;70.59;98770.78;5046410;28;20091;-69
2022/04/24 06:23:04;;;;;;;4.03;3.25;;;;;;;10.52;70.59;98768.75;5050581;28;20120;-69
2022/04/24 06:25:34;;;;;;;4.22;3.25;;;;;;;10.56;70.46;98780.59;5037362;28;20030;-69
2022/04/24 06:28:01;;;;;;;4.55;3.00;;;;;;;10.61;70.30;98775.53;5029485;28;20144;-69
2022/04/24 06:30:28;;;;;;;3.63;3.00;;;;;;;10.57;70.28;98779.56;5031029;28;20037;-69
2022/04/24 06:32:55;;;;;;;4.35;3.10;;;;;;;10.55;70.10;98777.09;5028646;28;20033;-69
2022/04/24 06:35:21;;;;;;;7.10;5.90;;;;;;;10.45;72.44;98778.47;5027561;28;20029;-68
2022/04/24 06:37:49;;;;;;;7.03;6.10;;;;;;;10.31;74.10;98778.38;5027418;28;20040;-69
2022/04/24 06:40:16;;;;;;;7.60;5.90;;;;;;;10.21;74.93;98785.78;5042084;28;20079;-69
2022/04/24 06:42:50;;;;;;;5.53;4.70;;;;;;;10.32;73.94;98782.66;5028859;28;20546;-69
2022/04/24 06:45:32;;;;;;;5.28;4.30;;;;;;;10.35;73.23;98792.84;5027267;28;20115;-69
2022/04/24 06:48:06;;;;;;;5.32;4.30;;;;;;;10.35;73.58;98789.38;5031039;28;20104;-69
2022/04/24 06:50:33;;;;;;;5.03;3.90;;;;;;;10.35;73.34;98792.84;5027653;28;20032;-69
2022/04/24 06:53:00;;;;;;;5.25;3.85;;;;;;;10.38;73.29;98797.72;5033024;28;20052;-69
2022/04/24 06:55:28;;;;;;;4.80;3.65;;;;;;;10.39;73.25;98795.91;5049186;28;20501;-69
2022/04/24 06:57:54;;;;;;;3.95;3.13;;;;;;;10.37;72.88;98803.22;5045302;28;21280;-69
2022/04/24 07:00:20;;;;;;;4.82;3.80;;;;;;;10.36;73.77;98807.66;5047944;28;20040;-69
2022/04/24 07:02:46;;;;;;;4.80;3.65;;;;;;;10.31;73.53;98802.16;5054807;28;20064;-69
2022/04/24 07:05:13;;;;;;;4.60;3.80;;;;;;;10.32;73.11;98809.09;5040693;28;20060;-69
2022/04/24 07:07:38;;;;;;;5.18;3.30;;;;;;;10.38;73.16;98815.41;5031348;28;20041;-69
2022/04/24 07:10:04;;;;;;;4.50;3.40;;;;;;;10.41;73.09;98817.66;5027794;28;20406;-69
2022/04/24 07:12:29;;;;;;;5.00;4.00;;;;;;;10.33;74.20;98810.72;5040952;28;20072;-69
2022/04/24 07:14:55;;;;;;;5.43;4.03;;;;;;;10.34;74.00;98814.97;5029153;28;20501;-69
2022/04/24 07:17:21;;;;;;;4.50;3.35;;;;;;;10.36;73.99;98820.06;5026807;28;20029;-69
2022/04/24 07:19:47;;;;;;;4.03;3.22;;;;;;;10.38;73.59;98821.50;5030025;28;20094;-69
2022/04/24 07:22:12;;;;;;;5.18;3.40;;;;;;;10.46;73.58;98817.09;5028995;28;20033;-69
2022/04/24 07:24:38;;;;;;;4.68;3.80;;;;;;;10.37;74.24;98825.19;5026659;28;20034;-69
2022/04/24 07:27:03;;;;;;;4.88;3.40;;;;;;;10.43;74.16;98820.94;5021213;28;20043;-69
2022/04/24 07:29:28;;;;;;;3.80;2.85;;;;;;;10.45;74.27;98811.00;5015549;28;20486;-69
2022/04/24 07:31:53;;;;;;;4.80;3.20;;;;;;;10.44;74.02;98812.00;5023417;28;20601;-69
2022/04/24 07:34:19;;;;;;;5.00;3.80;;;;;;;10.43;74.31;98820.13;5023040;28;20376;-69
2022/04/24 07:36:45;;;;;;;4.70;3.75;;;;;;;10.42;74.69;98821.97;5030968;28;20068;-69
2022/04/24 07:39:10;;;;;;;4.93;3.80;;;;;;;10.47;74.64;98824.03;5053090;28;20110;-69
2022/04/24 07:41:35;;;;;;;4.03;3.30;;;;;;;10.54;74.57;98811.66;5039789;28;20045;-69
2022/04/24 07:44:01;;;;;;;4.30;3.53;;;;;;;10.49;74.73;98816.72;5032844;28;20041;-69
2022/04/24 07:46:27;;;;;;;4.53;3.63;;;;;;;10.50;74.29;98815.69;5031976;28;20049;-69
2022/04/24 07:48:52;;;;;;;5.88;4.85;;;;;;;10.46;75.54;98817.91;5035820;28;20034;-69
2022/04/24 07:51:17;;;;;;;5.85;4.05;;;;;;;10.48;74.98;98823.81;5032205;28;20033;-69
2022/04/24 07:53:44;;;;;;;4.70;3.67;;;;;;;10.58;74.04;98828.75;5032236;28;20041;-69
2022/04/24 07:56:09;;;;;;;6.03;4.50;;;;;;;10.42;74.88;98829.88;5027645;28;20037;-69
2022/04/24 07:58:34;;;;;;;7.45;4.78;;;;;;;10.32;75.32;98832.03;5029289;28;20487;-69
2022/04/24 08:01:00;;;;;;;5.45;4.38;;;;;;;10.25;75.70;98826.69;5028006;28;20489;-69
2022/04/24 08:03:25;;;;;;;4.97;4.28;;;;;;;10.14;75.76;98822.72;5033568;28;20129;-69
2022/04/24 08:05:51;;;;;;;6.07;4.50;;;;;;;10.14;76.32;98827.19;5031512;28;20044;-69
2022/04/24 08:08:18;;;;;;;5.63;4.72;;;;;;;10.10;75.93;98828.56;5035650;28;20034;-69
2022/04/24 08:10:45;;;;;;;5.35;4.35;;;;;;;10.06;76.59;98833.44;5052466;28;20051;-68
2022/04/24 08:13:11;;;;;;;5.10;4.10;;;;;;;10.06;76.35;98835.22;5049400;28;20040;-68
2022/04/24 08:15:37;;;;;;;5.30;4.25;;;;;;;10.06;76.92;98844.00;5045499;28;20124;-68
2022/04/24 08:18:05;;;;;;;5.45;4.30;;;;;;;10.06;76.82;98836.06;5051444;28;20033;-69
2022/04/24 08:20:31;;;;;;;5.90;4.78;;;;;;;10.13;76.99;98838.75;5048929;28;20321;-68
2022/04/24 08:22:59;;;;;;;7.32;5.60;;;;;;;10.23;76.74;98841.09;5052291;28;20040;-68
2022/04/24 08:25:26;;;;;;;7.15;4.97;;;;;;;10.18;76.87;98839.03;5041192;28;20196;-69
2022/04/24 08:27:53;;;;;;;5.70;4.18;;;;;;;10.19;77.18;98838.81;5039599;28;20033;-69
2022/04/24 08:30:20;;;;;;;6.28;4.75;;;;;;;10.19;77.69;98835.34;5031837;28;20034;-69
2022/04/24 08:32:46;;;;;;;5.55;4.60;;;;;;;10.20;77.64;98836.97;5032400;28;20037;-71
2022/04/24 08:35:14;;;;;;;5.72;4.38;;;;;;;10.18;78.01;98845.13;5030338;28;20116;-71
2022/04/24 08:37:40;;;;;;;5.53;4.35;;;;;;;10.17;77.58;98840.81;5029954;28;20052;-71
2022/04/24 08:40:07;;;;;;;4.95;3.63;;;;;;;10.18;77.73;98846.94;5032923;28;20086;-71
2022/04/24 08:42:33;;;;;;;5.10;3.97;;;;;;;10.19;78.33;98849.38;5032904;28;20099;-71
2022/04/24 08:45:02;;;;;;;5.28;4.18;;;;;;;10.13;77.20;98854.59;5033584;28;20038;-71
2022/04/24 08:47:28;;;;;;;5.20;3.90;;;;;;;10.02;77.38;98861.22;5028849;28;20132;-71
2022/04/24 08:49:58;;;;;;;4.80;3.70;;;;;;;10.03;77.63;98857.56;5036221;28;20044;-71
2022/04/24 08:52:25;;;;;;;4.47;3.53;;;;;;;10.11;77.99;98859.28;5032701;28;20048;-70
2022/04/24 08:54:52;;;;;;;4.22;3.70;;;;;;;10.21;78.12;98867.69;5030520;28;20041;-71
2022/04/24 08:57:18;;;;;;;4.78;3.78;;;;;;;10.29;78.21;98879.97;5027933;28;20182;-70
2022/04/24 08:59:44;;;;;;;4.72;3.67;;;;;;;10.33;77.65;98874.13;5037228;28;20579;-70
2022/04/24 09:02:09;;;;;;;5.85;3.80;;;;;;;10.30;77.47;98881.63;5029916;28;20065;-71
2022/04/24 09:04:36;;;;;;;5.60;4.70;;;;;;;10.31;78.71;98875.31;5028366;28;20036;-70
2022/04/24 09:07:17;;;;;;;6.07;4.90;;;;;;;10.36;78.38;98872.91;5028638;28;20091;-70
2022/04/24 09:09:48;;;;;;;5.05;4.30;;;;;;;10.41;78.63;98871.31;5041139;28;20586;-70
2022/04/24 09:12:18;;;;;;;6.55;5.15;;;;;;;10.44;79.08;98867.50;5054719;28;20151;-71
2022/04/24 09:14:48;;;;;;;6.17;4.50;;;;;;;10.56;78.20;98865.97;5041917;28;20041;-71
2022/04/24 09:17:19;;;;;;;6.30;4.13;;;;;;;10.74;77.27;98870.75;5041959;28;20071;-71
2022/04/24 09:19:44;;;;;;;4.55;3.47;;;;;;;10.87;76.50;98875.31;5035487;28;20586;-71
2022/04/24 09:22:10;;;;;;;4.55;3.40;;;;;;;11.00;75.91;98885.16;5029616;28;20129;-71
2022/04/24 09:24:44;;;;;;;4.95;3.35;;;;;;;11.09;75.35;98881.34;5026650;28;20120;-71
2022/04/24 09:27:11;;;;;;;5.10;4.18;;;;;;;11.12;75.53;98877.50;5037343;28;20067;-70
2022/04/24 09:29:39;;;;;;;4.75;4.00;;;;;;;11.12;75.00;98875.66;5032539;28;20045;-71
2022/04/24 09:32:12;;;;;;;4.72;3.60;;;;;;;11.19;75.10;98879.16;5024686;28;20041;-71
2022/04/24 09:34:37;;;;;;;6.45;3.97;;;;;;;11.19;75.54;98879.16;5026102;28;20093;-71
2022/04/24 09:37:09;;;;;;;5.55;4.25;;;;;;;11.24;75.46;98878.56;5044725;28;20103;-70
2022/04/24 09:39:34;;;;;;;;;;;;;;;11.31;75.21;98884.69;5051425;28;20163;-70
2022/04/24 09:42:07;;;;;;;5.72;3.63;;;;;;;11.44;74.65;98889.22;5050173;28;20015;-71
2022/04/24 09:44:51;;;;;;;3.92;3.22;;;;;;;11.54;74.39;98888.88;5031533;28;20033;-70
2022/04/24 09:47:18;;;;;;;4.20;3.40;;;;;;;11.62;74.14;98896.63;5034117;28;20025;-71
2022/04/24 09:49:50;;;;;;;4.55;3.47;;;;;;;11.69;73.88;98895.63;5027436;28;20048;-71
2022/04/24 09:52:24;;;;;;;4.45;3.60;;;;;;;11.73;73.65;98898.72;5024124;28;20397;-71
2022/04/24 09:54:54;;;;;;;4.25;3.45;;;;;;;11.81;73.43;98893.22;5026755;28;20052;-71
2022/04/24 09:57:23;;;;;;;3.90;3.22;;;;;;;11.86;73.55;98905.88;5024832;28;20069;-71
2022/04/24 09:59:53;;;;;;;5.00;3.40;;;;;;;11.92;73.17;98899.81;5026005;28;20116;-71
2022/04/24 10:02:19;;;;;;;3.78;3.17;;;;;;;11.97;73.10;98901.88;5026224;28;20513;-71
2022/04/24 10:04:46;;;;;;;6.18;4.20;;;;;;;11.97;73.11;98899.22;5045471;28;20668;-71
2022/04/24 10:07:16;;;;;;;6.05;4.55;;;;;;;11.95;72.60;98907.34;5047697;28;20032;-71
2022/04/24 10:09:44;;;;;;;5.47;4.55;;;;;;;11.88;72.83;98901.22;5048981;28;20068;-71
2022/04/24 10:12:23;;;;;;;5.65;4.45;;;;;;;11.93;72.56;98911.22;5048958;28;20040;-71
2022/04/24 10:14:57;;;;;;;6.07;4.32;;;;;;;11.94;72.65;98911.03;5047434;28;20045;-71
2022/04/24 10:17:35;;;;;;;5.32;4.10;;;;;;;11.94;72.56;98918.97;5033393;28;20030;-71
2022/04/24 10:20:42;;;;;;;4.80;3.45;;;;;;;11.99;72.54;98921.84;5033130;28;20037;-71
2022/04/24 10:23:09;;;;;;;5.53;4.00;;;;;;;12.04;72.20;98926.53;5028578;28;20038;-71
2022/04/24 10:25:40;;;;;;;5.05;3.65;;;;;;;11.96;72.59;98926.69;5029295;28;20057;-72
2022/04/24 10:28:16;;;;;;;4.45;3.72;;;;;;;11.94;72.56;98926.94;5029648;28;20041;-71
2022/04/24 10:30:44;;;;;;;5.47;4.07;;;;;;;11.95;73.04;98938.31;5051367;28;20045;-70
2022/04/24 10:33:24;;;;;;;5.00;3.90;;;;;;;12.02;72.55;98931.22;5041406;28;20033;-71
2022/04/24 10:35:52;;;;;;;5.07;3.97;;;;;;;12.06;72.64;98927.13;5043974;28;20124;-71
2022/04/24 10:38:19;;;;;;;6.65;5.18;;;;;;;11.99;72.35;98936.88;5043322;28;20493;-71
2022/04/24 10:41:01;;;;;;;6.95;4.97;;;;;;;11.92;72.39;98939.53;5031685;28;20726;-70
2022/04/24 10:43:37;;;;;;;6.82;4.93;;;;;;;11.91;72.59;98943.19;5038575;28;20041;-71
2022/04/24 10:46:13;;;;;;;6.60;4.97;;;;;;;11.90;72.51;98947.69;5047351;28;20051;-71
2022/04/24 10:48:39;;;;;;;5.78;4.93;;;;;;;11.90;72.55;98945.03;5025060;28;20030;-71
2022/04/24 10:51:05;;;;;;;6.13;4.90;;;;;;;11.88;72.10;98946.25;5027139;28;20203;-71
2022/04/24 10:53:48;;;;;;;5.85;4.47;;;;;;;11.90;72.05;98952.16;5028446;28;20064;-70
2022/04/24 10:56:13;;;;;;;5.40;4.32;;;;;;;11.91;71.97;98951.13;5028653;28;20601;-71
2022/04/24 10:58:38;;;;;;;7.78;5.35;;;;;;;11.93;71.78;98953.59;5054163;28;20037;-71
2022/04/24 11:01:14;;;;;;;6.60;5.50;;;;;;;11.86;71.89;98951.69;5053632;28;20037;-71
2022/04/24 11:03:41;;;;;;;7.90;6.30;;;;;;;11.75;72.20;98954.09;5050293;28;20029;-71
2022/04/24 11:06:20;;;;;;;9.05;6.70;;;;;;;11.63;72.70;98960.00;5048872;28;20089;-70
2022/04/24 11:08:45;;;;;;;8.88;5.97;;;;;;;11.63;72.13;98964.44;5027598;28;20042;-71
2022/04/24 11:11:13;;;;;;;6.70;5.55;;;;;;;11.59;71.71;98969.31;5028210;28;20044;-71
2022/04/24 11:13:39;;;;;;;7.47;5.90;;;;;;;11.58;71.89;98962.38;5028008;28;20108;-71
2022/04/24 11:16:06;;;;;;;8.27;6.28;;;;;;;11.58;71.63;98962.38;5025940;28;20125;-71
2022/04/24 11:18:31;;;;;;;7.55;6.05;;;;;;;11.62;71.48;98965.47;5031813;28;20091;-71
2022/04/24 11:21:01;;;;;;;7.50;6.38;;;;;;;11.63;71.62;98967.09;5031194;28;20041;-71
2022/04/24 11:23:29;;;;;;;8.57;6.63;;;;;;;11.62;71.70;98965.47;5028918;28;20033;-71
2022/04/24 11:25:56;;;;;;;8.48;6.57;;;;;;;11.65;71.85;98962.41;5030365;28;20161;-71
2022/04/24 11:28:33;;;;;;;7.03;5.72;;;;;;;11.76;71.99;98967.16;5025906;28;20044;-71
2022/04/24 11:31:24;;;;;;;7.63;5.65;;;;;;;11.90;71.75;98968.06;5030981;28;20057;-71
2022/04/24 11:33:54;;;;;;;8.95;6.88;;;;;;;12.00;72.06;98970.34;5028735;28;20106;-70
2022/04/24 11:36:21;;;;;;;8.00;6.68;;;;;;;12.10;71.92;98966.28;5030048;28;20513;-71